Latest Coastal Weather Observations for Bundaberg

IDQ60701

Issued at 10:21 pm EST Sunday 25 January 2015 (issued every 10 minutes, with the page automatically refreshed every 10 minutes)

About coastal observations | Map of coastal stations | Coastal observations for QLD | Marine services | Other Formats
Station Details ID: 039128 Name: BUNDABERG AERO Lat: -24.91 Lon: 152.32 Height: 30.82 m
Data from the previous 72 hours. | See also: Recent months at Bundaberg
Date/Time
EST
Temp

°C
Wind Pressure Rain
since 9am
mm
Weather Cloud Vis
km
Sea
Height
m
Swell
Dir
 
Speed
knots
Gust
knots
hPa Trend Height
m
Period
s
Dir
25/10:00pm 24.4 WNW 5 6 1005.8 - 1.0 - - - - - - -
25/09:30pm 25.0 N 7 9 1005.3 - 1.0 - - - - - - -
25/09:00pm 24.5 NNE 8 10 1005.1 - 1.0 Rain - - - - - -
25/08:30pm 24.7 NNW 8 9 1005.0 - 0.8 - - - - - - -
25/08:00pm 25.5 NNW 13 17 1005.1 - 0.8 - - - - - - -
25/07:30pm 25.5 WNW 9 11 1005.9 - 0.6 - - - - - - -
25/07:00pm 25.5 NE 7 11 1004.9 - 0.6 - - - - - - -
25/06:30pm 26.0 ESE 15 19 1005.1 - 0.6 - - - - - - -
25/06:06pm 28.1 SE 13 26 1004.9 - 0.6 - - - - - - -
25/06:00pm 28.9 ESE 7 12 1004.0 - 0.6 - - - - - - -
25/05:30pm 29.0 N 8 11 1002.8 - 0.6 - - - - - - -
25/05:00pm 28.6 N 9 11 1002.4 - 0.6 - - - - - - -
25/04:30pm 28.6 NNW 16 21 1003.1 - 0.0 - - - - - - -
25/04:00pm 29.4 N 15 20 1003.3 - 0.0 - - - - - - -
25/03:30pm 30.7 NNE 11 13 1002.6 - 0.0 - - - - - - -
25/03:00pm 31.7 N 12 16 1002.9 - 0.0 - - - - - - -
25/02:30pm 32.7 N 11 13 1003.0 - 0.0 - - - - - - -
25/02:00pm 32.9 N 9 13 1003.3 - 0.0 - - - - - - -
25/01:30pm 33.1 NNE 9 15 1003.5 - 0.0 - - - - - - -
25/01:00pm 33.4 N 8 12 1003.8 - 0.0 - - - - - - -
25/12:30pm 32.6 N 9 12 1004.2 - 0.0 - - - - - - -
25/12:00pm 32.3 N 7 12 1004.7 - 0.0 - - - - - - -
25/11:30am 32.6 NW 6 10 1005.3 - 0.0 - - - - - - -
25/11:00am 32.0 N 6 11 1005.8 - 0.0 - - - - - - -
25/10:30am 32.1 NNW 9 13 1006.2 - 0.0 - - - - - - -
25/10:00am 31.6 NW 9 13 1006.6 - 0.0 - - - - - - -
25/09:30am 30.9 NNW 9 11 1006.6 - 0.0 - - - - - - -
25/09:00am 29.9 N 7 11 1006.9 - 0.0 - - - - - - -
25/08:30am 29.4 N 5 8 1007.3 - 0.0 - - - - - - -
25/08:00am 28.7 N 3 7 1007.5 - 0.0 - - - - - - -
25/07:30am 28.1 NE 1 4 1007.5 - 0.0 - - - - - - -
25/07:00am 26.7 SE 3 4 1007.3 - 0.0 - - - - - - -
25/06:30am 25.4 S 3 5 1007.0 - 0.0 - - - - - - -
25/06:00am 24.5 SSE 4 5 1006.8 - 0.0 - - - - - - -
25/05:30am 24.1 SSE 4 5 1006.6 - 0.0 - - - - - - -
25/05:00am 24.1 SSE 4 5 1006.1 - 0.0 - - - - - - -
25/04:30am 24.0 CALM 0 0 1005.9 - 0.0 - - - - - - -
25/04:00am 24.0 SE 2 4 1005.7 - 0.0 - - - - - - -
25/03:30am 24.2 CALM 0 0 1005.6 - 0.0 - - - - - - -
25/03:00am 24.4 CALM 0 0 1005.6 - 0.0 - - - - - - -
25/02:30am 24.6 CALM 0 0 1005.8 - 0.0 - - - - - - -
25/02:00am 24.8 CALM 0 0 1006.0 - 0.0 - - - - - - -
25/01:30am 25.3 NNE 3 4 1006.2 - 0.0 - - - - - - -
25/01:00am 25.5 NE 4 5 1006.5 - 0.0 - - - - - - -
25/12:30am 25.6 N 4 5 1007.0 - 0.0 - - - - - - -
25/12:00am 25.8 NNE 5 6 1007.1 - 0.0 - - - - - - -
 
Date/Time
EST
Temp

°C
Wind Pressure Rain
since 9am
mm
Weather Cloud Vis
km
Sea
Height
m
Swell
Dir
 
Speed
knots
Gust
knots
hPa Trend Height
m
Period
s
Dir
24/11:30pm 25.8 NE 6 7 1007.0 - 0.0 - - - - - - -
24/11:00pm 25.7 ENE 5 7 1007.0 - 0.0 - - - - - - -
24/10:30pm 25.7 ENE 5 6 1007.2 - 0.0 - - - - - - -
24/10:00pm 25.8 ENE 6 8 1007.1 - 0.0 - - - - - - -
24/09:30pm 26.2 NE 6 8 1006.9 - 0.0 - - - - - - -
24/09:00pm 26.5 NE 7 9 1006.8 - 0.0 - - - - - - -
24/08:30pm 26.8 NNE 7 9 1006.7 - 0.0 - - - - - - -
24/08:00pm 26.7 NE 7 9 1006.2 - 0.0 - - - - - - -
24/07:30pm 27.1 N 8 10 1006.0 - 0.0 - - - - - - -
24/07:00pm 27.2 NNE 8 9 1005.6 - 0.0 - - - - - - -
24/06:30pm 27.4 NE 8 12 1005.3 - 0.0 - - - - - - -
24/06:00pm 27.9 NE 9 11 1005.1 - 0.0 - - - - - - -
24/05:30pm 28.4 NNE 9 13 1005.1 - 0.0 - - - - - - -
24/05:00pm 28.5 NNE 10 14 1004.3 - 0.0 - - - - - - -
24/04:30pm 28.7 NNE 12 16 1004.1 - 0.0 - - - - - - -
24/04:00pm 29.0 NE 9 15 1004.0 - 0.0 - - - - - - -
24/03:30pm 31.8 SW 5 8 1003.8 - 0.0 - - - - - - -
24/03:00pm 32.5 SW 6 9 1003.7 - 0.0 - - - - - - -
24/02:30pm 32.5 SSW 7 10 1004.0 - 0.0 - - - - - - -
24/02:00pm 31.6 SW 6 12 1004.3 - 0.0 - - - - - - -
24/01:30pm 31.8 SW 8 12 1004.4 - 0.0 - - - - - - -
24/01:00pm 31.0 SW 7 12 1004.7 - 0.0 - - - - - - -
24/12:30pm 31.4 WSW 8 14 1004.9 - 0.0 - - - - - - -
24/12:00pm 30.6 WSW 9 12 1005.2 - 0.0 - - - - - - -
24/11:30am 30.1 WSW 9 13 1005.5 - 0.0 - - 10 - - - -
24/11:00am 30.1 WSW 8 13 1005.8 - 0.0 - - 10 - - - -
24/10:30am 28.4 WSW 7 11 1006.0 - 0.0 - - 10 - - - -
24/10:00am 28.3 W 6 13 1005.9 - 0.0 - Partly cloudy 10 - - - -
24/09:30am 27.4 SW 6 10 1005.9 - 0.0 - - 10 - - - -
24/09:00am 26.4 SSW 6 9 1006.1 - 10.8 - - 10 - - - -
24/08:30am 25.8 WSW 7 10 1006.1 - 10.8 - Partly cloudy 10 - - - -
24/08:00am 25.2 SW 8 10 1006.2 - 10.8 - Partly cloudy 10 - - - -
24/07:30am 24.3 SW 6 9 1006.1 - 10.8 - - 10 - - - -
24/07:00am 23.5 SW 7 9 1005.9 - 10.8 - - 10 - - - -
24/06:30am 22.8 SW 6 9 1005.7 - 10.8 - - 10 - - - -
24/06:00am 22.1 SW 3 5 1005.6 - 10.8 - - 10 - - - -
24/05:30am 21.6 SSW 4 5 1005.2 - 10.8 - - 10 - - - -
24/05:00am 21.7 CALM 0 0 1004.6 - 10.8 - - 10 - - - -
24/04:30am 21.8 SSW 5 6 1004.0 - 10.8 - - 10 - - - -
24/04:00am 21.9 S 5 7 1003.7 - 10.8 - - 10 - - - -
24/03:30am 22.0 SSW 5 7 1003.4 - 10.8 - - 10 - - - -
24/03:00am 22.3 SSW 6 8 1003.5 - 10.8 - - 10 - - - -
24/02:30am 22.5 SSW 6 9 1003.6 - 10.8 - - 10 - - - -
24/02:00am 22.6 SSW 4 6 1003.6 - 10.8 - - 10 - - - -
24/01:30am 22.8 SSW 5 6 1003.8 - 10.8 - Partly cloudy 10 - - - -
24/01:00am 22.9 SSW 6 8 1004.0 - 10.8 - Partly cloudy 10 - - - -
24/12:30am 22.8 SSW 5 6 1004.3 - 10.8 - Partly cloudy 10 - - - -
24/12:00am 23.0 SW 4 7 1004.7 - 10.8 - - 10 - - - -
 
Date/Time
EST
Temp

°C
Wind Pressure Rain
since 9am
mm
Weather Cloud Vis
km
Sea
Height
m
Swell
Dir
 
Speed
knots
Gust
knots
hPa Trend Height
m
Period
s
Dir
23/11:30pm 23.3 SW 5 7 1004.8 - 10.8 - - 10 - - - -
23/11:00pm 23.6 SW 5 7 1004.9 - 10.8 - Partly cloudy 10 - - - -
23/10:30pm 23.8 S 5 7 1004.7 - 10.8 - - 10 - - - -
23/10:00pm 24.2 S 5 6 1004.9 - 10.8 - Partly cloudy 10 - - - -
23/09:30pm 24.5 S 5 8 1004.7 - 10.8 - Cloudy 10 - - - -
23/09:00pm 24.7 SSW 3 5 1004.4 - 10.8 - Cloudy 10 - - - -
23/08:30pm 24.9 SW 5 7 1004.3 - 10.8 - Partly cloudy 10 - - - -
23/08:00pm 25.0 CALM 0 0 1003.8 - 10.8 - Partly cloudy 10 - - - -
23/07:30pm 25.2 CALM 0 3 1003.7 - 10.8 - Partly cloudy 10 - - - -
23/07:00pm 25.4 NW 4 5 1003.6 - 10.8 - Partly cloudy 10 - - - -
23/06:30pm 25.6 NNW 6 8 1002.8 - 10.8 - Partly cloudy 10 - - - -
23/06:00pm 26.1 N 8 10 1002.2 - 10.8 - Mostly clear 10 - - - -
23/05:30pm 26.9 N 5 7 1002.3 - 10.8 - Partly cloudy 10 - - - -
23/05:00pm 26.7 N 6 7 1001.9 - 10.8 - Partly cloudy 10 - - - -
23/04:30pm 27.7 CALM 0 0 1001.8 - 10.8 - Partly cloudy 10 - - - -
23/04:00pm 27.6 SSW 5 6 1001.8 - 10.8 - Partly cloudy 10 - - - -
23/03:30pm 28.5 WNW 6 10 1001.9 - 10.8 - Partly cloudy 10 - - - -
23/03:00pm 28.1 NW 7 11 1002.1 - 10.8 - Mostly clear 10 - - - -
23/02:30pm 27.3 NW 6 9 1002.5 - 10.8 - Cloudy 10 - - - -
23/02:04pm 26.0 NNW 6 7 1002.9 - 10.8 - Partly cloudy 10 - - - -
23/02:00pm 25.9 NW 5 7 1003.1 - 10.8 - Partly cloudy 10 - - - -
23/01:41pm 24.3 NNW 13 18 1003.4 - 7.4 - Partly cloudy 5 - - - -
23/01:30pm 25.9 NNW 12 14 1003.3 - 6.0 - Partly cloudy 8 - - - -
23/01:00pm 27.9 NW 10 14 1003.2 - 6.0 - Partly cloudy 10 - - - -
23/12:30pm 27.5 NW 8 11 1003.4 - 6.0 - Partly cloudy 10 - - - -
23/12:00pm 26.7 NW 8 11 1003.9 - 6.0 - Mostly cloudy 10 - - - -
23/11:46am 26.8 NW 8 10 1004.1 - 6.0 - Partly cloudy 10 - - - -
23/11:30am 26.5 NW 6 9 1004.4 - 6.0 - Partly cloudy 10 - - - -
23/11:20am 26.3 W 3 7 1004.4 - 6.0 - Partly cloudy 10 - - - -
23/11:00am 25.4 SW 5 6 1004.6 - 6.0 - Cloudy 10 - - - -
23/10:30am 24.7 WSW 1 7 1005.1 - 6.0 - Partly cloudy 10 - - - -
23/10:00am 24.1 WSW 5 7 1005.2 - 4.6 - Partly cloudy 10 - - - -
23/09:44am 24.1 WSW 6 7 1005.5 - 4.0 - Cloudy 9 - - - -
23/09:30am 24.0 W 6 7 1005.5 - 3.2 - Partly cloudy 5 - - - -
23/09:00am 23.9 SSW 3 6 1005.7 - 28.2 Showers Cloudy 5 - - - -
23/08:30am 23.9 S 7 9 1005.4 - 27.2 - Partly cloudy 8 - - - -
23/08:00am 23.6 SSW 7 10 1005.5 - 27.0 - Partly cloudy 10 - - - -
23/07:30am 23.5 S 6 9 1005.4 - 26.8 - Partly cloudy 10 - - - -
23/07:06am 23.3 S 5 7 1005.4 - 26.8 - Partly cloudy 6 - - - -
23/07:00am 23.3 S 5 8 1005.5 - 26.8 - Partly cloudy 7 - - - -
23/06:56am 22.9 S 6 8 1005.5 - 26.8 - Partly cloudy 5 - - - -
23/06:30am 22.8 SSW 7 8 1005.5 - 26.2 - Partly cloudy 6 - - - -
23/06:00am 22.6 S 6 7 1005.4 - 25.6 - Cloudy 10 - - - -
23/05:30am 22.4 SSW 6 7 1005.4 - 25.6 - Partly cloudy 10 - - - -
23/05:00am 22.5 S 4 5 1005.7 - 25.6 - Partly cloudy 10 - - - -
23/04:57am 22.4 S 4 5 1005.6 - 25.6 - Partly cloudy 10 - - - -
23/04:32am 22.4 SSW 5 7 1005.1 - 22.8 - Partly cloudy 5 - - - -
23/04:30am 22.4 SSW 5 7 1005.1 - 22.2 - Partly cloudy 9 - - - -
23/04:00am 22.4 CALM 0 3 1005.1 - 21.8 - Partly cloudy 10 - - - -
23/03:30am 22.5 S 5 6 1005.3 - 21.8 - Partly cloudy 10 - - - -
23/03:21am 22.5 SSW 4 5 1005.3 - 21.8 - Partly cloudy 10 - - - -
23/03:01am 22.6 SW 4 6 1005.5 - 20.8 - Cloudy 5 - - - -
23/03:00am 22.6 WSW 5 6 1005.5 - 20.8 Showers Mostly cloudy 6 - - - -
23/02:30am 22.6 WSW 6 7 1005.4 - 20.2 - Partly cloudy 10 - - - -
23/02:00am 22.9 E 5 7 1005.5 - 20.2 - Partly cloudy 10 - - - -
23/01:30am 23.2 CALM 0 0 1005.5 - 20.2 - Partly cloudy 10 - - - -
23/01:00am 23.0 E 10 13 1004.3 - 20.2 - Cloudy 10 - - - -
23/12:30am 22.3 SE 7 10 1005.4 - 20.2 - Partly cloudy 10 - - - -
23/12:00am 21.8 SSE 6 7 1006.4 - 20.2 Showers Cloudy 10 - - - -
 
Date/Time
EST
Temp

°C
Wind Pressure Rain
since 9am
mm
Weather Cloud Vis
km
Sea
Height
m
Swell
Dir
 
Speed
knots
Gust
knots
hPa Trend Height
m
Period
s
Dir
22/11:51pm 21.7 SSE 5 7 1006.7 - 20.2 - Partly cloudy 10 - - - -
22/11:30pm 21.5 SSE 5 8 1007.2 - 20.0 - Partly cloudy 10 - - - -
22/11:00pm 21.3 SSE 5 7 1007.8 - 20.0 - Partly cloudy 10 - - - -
22/10:30pm 21.1 SSE 5 9 1008.3 - 20.0 - Partly cloudy 10 - - - -

Other Formats:

Comma delimited format used in spreadsheet applications
http://www.bom.gov.au/fwo/IDQ60701/IDQ60701.94387.axf

JavaScript Object Notation format (JSON) in row-major order
http://www.bom.gov.au/fwo/IDQ60701/IDQ60701.94387.json